Time;durP1;ratioP1;P1;durP2;ratioP2;P2;SDS_P1;SDS_P2;PMS_P1;PMS_P2;Temp;Humidity;BMP_temperature;BMP_pressure;BME280_temperature;BME280_humidity;BME280_pressure;Samples;Min_cycle;Max_cycle;Signal;HPM_P1;HPM_P2
2022/10/03 00:00:10;;;;;;;3.30;2.67;;;10.90;99.90;;;;;;932278;150;27398;-81
2022/10/03 00:02:42;;;;;;;4.57;2.83;;;10.80;99.90;;;;;;927527;150;27291;-80
2022/10/03 00:05:30;;;;;;;4.03;2.87;;;10.80;99.90;;;;;;927826;150;28025;-83
2022/10/03 00:08:06;;;;;;;2.57;2.20;;;10.80;99.90;;;;;;922907;151;27439;-83
2022/10/03 00:11:03;;;;;;;3.20;2.90;;;10.80;99.90;;;;;;928143;150;27460;-82
2022/10/03 00:13:33;;;;;;;3.00;2.57;;;10.70;99.90;;;;;;925752;150;27426;-82
2022/10/03 00:16:17;;;;;;;3.13;2.60;;;10.70;99.90;;;;;;926507;150;27412;-81
2022/10/03 00:18:49;;;;;;;3.80;2.77;;;10.60;99.90;;;;;;928338;150;27325;-83
2022/10/03 00:21:28;;;;;;;3.17;2.63;;;10.60;99.90;;;;;;928525;150;27350;-83
2022/10/03 00:23:57;;;;;;;4.70;3.50;;;10.50;99.90;;;;;;927848;151;27362;-81
2022/10/03 00:26:27;;;;;;;3.23;2.93;;;10.50;99.90;;;;;;927862;150;27383;-81
2022/10/03 00:28:56;;;;;;;2.47;2.30;;;10.50;99.90;;;;;;927322;150;27423;-81
2022/10/03 00:31:44;;;;;;;2.80;2.60;;;10.50;99.90;;;;;;933924;151;27803;-80
2022/10/03 00:34:35;;;;;;;2.70;2.43;;;10.40;99.90;;;;;;918233;150;27390;-81
2022/10/03 00:37:26;;;;;;;2.43;2.23;;;10.30;99.90;;;;;;933543;151;27402;-81
2022/10/03 00:40:11;;;;;;;3.13;2.83;;;10.30;99.90;;;;;;933390;151;27758;-82
2022/10/03 00:42:40;;;;;;;3.20;2.90;;;10.20;99.90;;;;;;933594;151;27335;-81
2022/10/03 00:45:34;;;;;;;3.20;2.90;;;10.20;99.90;;;;;;932964;150;27814;-81
2022/10/03 00:48:19;;;;;;;3.13;2.83;;;10.20;99.90;;;;;;933633;150;27367;-81
2022/10/03 00:50:51;;;;;;;3.27;2.87;;;10.20;99.90;;;;;;932060;150;27443;-81
2022/10/03 00:53:40;;;;;;;3.93;2.77;;;10.20;99.90;;;;;;933062;151;27394;-82
2022/10/03 00:56:34;;;;;;;4.13;3.03;;;10.10;99.90;;;;;;933160;150;27406;-81
2022/10/03 00:59:18;;;;;;;3.10;2.80;;;10.10;99.90;;;;;;932311;151;27397;-82
2022/10/03 01:01:45;;;;;;;2.83;2.50;;;10.10;99.90;;;;;;933570;151;28012;-81
2022/10/03 01:04:30;;;;;;;4.20;2.40;;;10.10;99.90;;;;;;933394;150;27751;-81
2022/10/03 01:07:02;;;;;;;2.80;2.57;;;10.00;99.90;;;;;;933033;151;27343;-81
2022/10/03 01:09:41;;;;;;;3.13;2.83;;;10.00;99.90;;;;;;932301;151;27363;-82
2022/10/03 01:12:29;;;;;;;3.13;2.93;;;10.00;99.90;;;;;;934442;150;27476;-81
2022/10/03 01:15:05;;;;;;;5.63;3.00;;;9.90;99.90;;;;;;907948;150;27375;-81
2022/10/03 01:17:38;;;;;;;6.27;3.50;;;9.90;99.90;;;;;;933188;148;27428;-80
2022/10/03 01:20:10;;;;;;;15.63;4.57;;;9.90;99.90;;;;;;932669;151;27406;-81
2022/10/03 01:22:55;;;;;;;22.27;5.53;;;9.90;99.90;;;;;;933131;150;28137;-81
2022/10/03 01:25:48;;;;;;;13.77;3.97;;;9.80;99.90;;;;;;933353;150;27440;-83
2022/10/03 01:31:46;;;;;;;11.20;4.10;;;9.80;99.90;;;;;;933578;151;27319;-80
2022/10/03 01:34:12;;;;;;;25.70;4.30;;;9.80;99.90;;;;;;933168;150;27339;-81
2022/10/03 01:36:54;;;;;;;10.87;4.10;;;9.70;99.90;;;;;;931929;150;27335;-80
2022/10/03 01:39:38;;;;;;;10.80;3.03;;;9.70;99.90;;;;;;933903;150;27369;-81
2022/10/03 01:42:08;;;;;;;3.53;2.77;;;9.70;99.90;;;;;;933468;150;27335;-81
2022/10/03 01:44:44;;;;;;;10.17;3.20;;;9.70;99.90;;;;;;932616;150;27362;-80
2022/10/03 01:47:14;;;;;;;6.17;3.13;;;9.70;99.90;;;;;;931454;151;27532;-81
2022/10/03 01:49:43;;;;;;;12.00;3.57;;;9.70;99.90;;;;;;925495;152;27477;-80
2022/10/03 01:52:09;;;;;;;28.47;4.83;;;9.70;99.90;;;;;;920997;152;27373;-80
2022/10/03 01:55:09;;;;;;;18.93;4.47;;;9.70;99.90;;;;;;913051;153;27376;-80
2022/10/03 01:57:41;;;;;;;12.67;3.87;;;9.70;99.90;;;;;;912568;153;27514;-81
2022/10/03 02:00:11;;;;;;;12.03;4.13;;;9.70;99.90;;;;;;913240;153;27333;-82
2022/10/03 02:02:43;;;;;;;7.87;3.90;;;9.60;99.90;;;;;;912548;153;27345;-81
2022/10/03 02:05:19;;;;;;;16.23;4.63;;;9.60;99.90;;;;;;913254;153;27377;-82
2022/10/03 02:07:45;;;;;;;34.07;5.10;;;9.60;99.90;;;;;;912717;153;29248;-81
2022/10/03 02:10:12;;;;;;;21.37;5.20;;;9.60;99.90;;;;;;911949;153;27345;-81
2022/10/03 02:12:38;;;;;;;21.03;5.30;;;9.60;99.90;;;;;;911874;153;27318;-79
2022/10/03 02:15:05;;;;;;;9.73;4.30;;;9.60;99.90;;;;;;900819;154;27417;-80
2022/10/03 02:17:59;;;;;;;37.20;5.47;;;9.60;99.90;;;;;;902581;154;27494;-79
2022/10/03 02:20:40;;;;;;;38.53;5.50;;;9.60;99.90;;;;;;904099;154;27412;-80
2022/10/03 02:23:16;;;;;;;26.17;4.97;;;9.60;99.90;;;;;;920388;151;28105;-80
2022/10/03 02:25:58;;;;;;;16.33;3.93;;;9.60;99.90;;;;;;891600;155;27344;-80
2022/10/03 02:28:30;;;;;;;21.83;4.63;;;9.60;99.90;;;;;;914834;152;27458;-79
2022/10/03 02:31:05;;;;;;;10.60;3.97;;;9.50;99.90;;;;;;910407;153;27477;-78
2022/10/03 02:34:05;;;;;;;5.60;4.20;;;9.50;99.90;;;;;;911615;153;27957;-80
2022/10/03 02:36:32;;;;;;;3.73;3.43;;;9.50;99.90;;;;;;911495;153;28009;-81
2022/10/03 02:39:20;;;;;;;4.23;3.83;;;9.50;99.90;;;;;;911871;153;27365;-80
2022/10/03 02:42:14;;;;;;;5.60;3.63;;;9.40;99.90;;;;;;911636;153;27345;-81
2022/10/03 02:44:45;;;;;;;9.77;4.27;;;9.40;99.90;;;;;;910878;153;27349;-80
2022/10/03 02:47:19;;;;;;;14.07;4.60;;;9.40;99.90;;;;;;910112;153;27541;-80
2022/10/03 02:49:54;;;;;;;14.80;4.07;;;9.40;99.90;;;;;;910965;155;27497;-81
2022/10/03 02:52:29;;;;;;;40.80;6.47;;;9.40;99.90;;;;;;911862;154;27421;-80
2022/10/03 02:55:21;;;;;;;28.63;6.07;;;9.40;99.90;;;;;;911031;153;27337;-81
2022/10/03 02:58:15;;;;;;;29.50;5.43;;;9.40;99.90;;;;;;912095;153;27354;-80
2022/10/03 03:01:00;;;;;;;23.00;4.87;;;9.40;99.90;;;;;;912567;152;27414;-81
2022/10/03 03:03:59;;;;;;;18.97;4.80;;;9.40;99.90;;;;;;911901;154;27411;-80
2022/10/03 03:06:51;;;;;;;5.67;3.87;;;9.40;99.90;;;;;;911480;153;27459;-80
2022/10/03 03:09:38;;;;;;;5.30;3.70;;;9.40;99.90;;;;;;911334;153;27471;-81
2022/10/03 03:12:34;;;;;;;5.00;3.43;;;9.30;99.90;;;;;;911429;153;27462;-81
2022/10/03 03:15:24;;;;;;;22.63;4.97;;;9.30;99.90;;;;;;915332;152;27911;-81
2022/10/03 03:17:56;;;;;;;23.33;5.13;;;9.30;99.90;;;;;;932489;150;27361;-81
2022/10/03 03:20:51;;;;;;;33.00;5.30;;;9.30;99.90;;;;;;931488;149;27370;-80
2022/10/03 03:23:26;;;;;;;38.67;6.23;;;9.30;99.90;;;;;;931415;150;27320;-80
2022/10/03 03:25:55;;;;;;;26.00;5.37;;;9.30;99.90;;;;;;932274;150;27305;-81
2022/10/03 03:28:52;;;;;;;21.33;4.43;;;9.30;99.90;;;;;;931052;150;27333;-79
2022/10/03 03:31:21;;;;;;;12.33;3.97;;;9.20;99.90;;;;;;932359;149;27309;-81
2022/10/03 03:34:06;;;;;;;8.67;3.30;;;9.20;99.90;;;;;;929447;150;28789;-81
2022/10/03 03:36:53;;;;;;;13.70;3.60;;;9.30;99.90;;;;;;918114;153;27847;-80
2022/10/03 03:39:39;;;;;;;6.70;3.33;;;9.30;99.90;;;;;;917770;154;27395;-81
2022/10/03 03:42:12;;;;;;;4.53;3.13;;;9.30;99.90;;;;;;938908;152;27400;-80
2022/10/03 03:45:18;;;;;;;6.50;3.30;;;9.30;99.90;;;;;;938830;149;27290;-81
2022/10/03 03:47:54;;;;;;;5.50;2.87;;;9.30;99.90;;;;;;937760;148;27479;-82
2022/10/03 03:50:42;;;;;;;13.40;3.40;;;9.30;99.90;;;;;;937444;148;27478;-82
2022/10/03 03:53:17;;;;;;;4.53;3.07;;;9.30;99.90;;;;;;937942;153;27617;-81
2022/10/03 03:55:49;;;;;;;14.73;4.00;;;9.30;99.90;;;;;;936262;150;27458;-81
2022/10/03 03:58:34;;;;;;;13.73;4.23;;;9.20;99.90;;;;;;935765;148;27773;-82
2022/10/03 04:01:25;;;;;;;27.90;4.70;;;9.20;99.90;;;;;;937819;149;27342;-81
2022/10/03 04:03:57;;;;;;;21.07;4.47;;;9.20;99.90;;;;;;937723;148;27295;-81
2022/10/03 04:06:36;;;;;;;7.97;3.40;;;9.20;99.90;;;;;;936674;148;27323;-81
2022/10/03 04:09:06;;;;;;;23.63;3.97;;;9.20;99.90;;;;;;938256;152;27362;-80
2022/10/03 04:11:32;;;;;;;26.63;4.20;;;9.10;99.90;;;;;;920025;152;27373;-80
2022/10/03 04:14:23;;;;;;;22.53;4.03;;;9.10;99.90;;;;;;936837;148;27303;-81
2022/10/03 04:19:48;;;;;;;5.30;2.50;;;9.10;99.90;;;;;;937877;148;27299;-80
2022/10/03 04:22:24;;;;;;;17.50;3.33;;;9.10;99.90;;;;;;936222;148;27384;-81
2022/10/03 04:24:53;;;;;;;7.50;2.77;;;9.10;99.90;;;;;;937980;148;27610;-81
2022/10/03 04:27:19;;;;;;;7.77;3.03;;;9.00;99.90;;;;;;936545;152;27403;-81
2022/10/03 04:29:46;;;;;;;14.90;4.50;;;9.00;99.90;;;;;;937541;152;27354;-80
2022/10/03 04:32:33;;;;;;;16.67;3.93;;;9.00;99.90;;;;;;936335;148;27427;-80
2022/10/03 04:35:16;;;;;;;3.43;2.87;;;9.00;99.90;;;;;;937848;148;27358;-82
2022/10/03 04:37:51;;;;;;;9.93;3.37;;;9.00;99.90;;;;;;937784;148;27467;-81
2022/10/03 04:40:30;;;;;;;9.60;3.13;;;9.00;99.90;;;;;;937628;148;27302;-81
2022/10/03 04:43:11;;;;;;;11.63;3.67;;;9.00;99.90;;;;;;937679;148;27415;-80
2022/10/03 04:46:05;;;;;;;23.27;4.83;;;9.00;99.90;;;;;;936970;148;27354;-81
2022/10/03 04:48:47;;;;;;;7.67;3.90;;;9.00;99.90;;;;;;936955;150;27949;-81
2022/10/03 04:51:16;;;;;;;14.07;3.70;;;9.10;99.90;;;;;;937748;148;27424;-81
2022/10/03 04:53:59;;;;;;;9.03;4.50;;;9.10;99.90;;;;;;937717;148;27746;-81
2022/10/03 04:56:29;;;;;;;12.80;4.43;;;9.20;99.90;;;;;;937719;148;27361;-81
2022/10/03 04:58:59;;;;;;;8.33;3.70;;;9.20;99.90;;;;;;911823;152;27431;-81
2022/10/03 05:01:52;;;;;;;4.90;3.50;;;9.30;99.90;;;;;;937695;148;27345;-80
2022/10/03 05:04:19;;;;;;;16.00;4.50;;;9.40;99.90;;;;;;937949;148;27377;-81
2022/10/03 05:06:48;;;;;;;13.93;4.53;;;9.40;99.90;;;;;;936821;148;27664;-80
2022/10/03 05:09:29;;;;;;;8.87;3.97;;;9.50;99.90;;;;;;933254;151;27443;-81
2022/10/03 05:12:00;;;;;;;6.57;4.33;;;9.60;99.90;;;;;;937262;148;27438;-81
2022/10/03 05:14:32;;;;;;;10.67;4.83;;;9.70;99.90;;;;;;936911;148;27303;-81
2022/10/03 05:17:32;;;;;;;13.17;4.83;;;9.80;99.90;;;;;;937270;148;27666;-80
2022/10/03 05:20:17;;;;;;;9.50;4.73;;;9.90;99.90;;;;;;938296;148;27412;-82
2022/10/03 05:22:49;;;;;;;5.40;4.47;;;10.00;99.90;;;;;;938018;151;27384;-81
2022/10/03 05:25:40;;;;;;;12.67;4.40;;;10.10;99.90;;;;;;936676;148;27352;-81
2022/10/03 05:28:20;;;;;;;6.70;4.13;;;10.10;99.90;;;;;;936731;148;28060;-81
2022/10/03 05:31:03;;;;;;;6.63;4.63;;;10.20;99.90;;;;;;936962;151;27382;-81
2022/10/03 05:33:59;;;;;;;4.43;4.03;;;10.20;99.90;;;;;;937003;148;27371;-81
2022/10/03 05:36:24;;;;;;;5.00;4.17;;;10.30;99.90;;;;;;937770;147;27770;-81
2022/10/03 05:39:27;;;;;;;4.40;4.00;;;10.40;99.90;;;;;;938247;150;27353;-79
2022/10/03 05:42:12;;;;;;;4.70;4.20;;;10.40;99.90;;;;;;937771;148;27383;-81
2022/10/03 05:44:44;;;;;;;5.13;4.63;;;10.40;99.90;;;;;;937961;148;27336;-80
2022/10/03 05:47:44;;;;;;;7.37;5.17;;;10.50;99.90;;;;;;937357;148;28129;-81
2022/10/03 05:50:37;;;;;;;5.50;4.77;;;10.50;99.90;;;;;;938436;148;27849;-82
2022/10/03 05:53:20;;;;;;;5.63;4.90;;;10.60;99.90;;;;;;937933;148;28105;-81
2022/10/03 05:55:53;;;;;;;5.53;4.77;;;10.60;99.90;;;;;;937664;149;27311;-80
2022/10/03 05:58:25;;;;;;;7.37;5.23;;;10.70;99.90;;;;;;936550;148;27303;-81
2022/10/03 06:01:13;;;;;;;6.67;4.87;;;10.70;99.90;;;;;;937800;148;27322;-80
2022/10/03 06:04:04;;;;;;;5.90;5.23;;;10.80;99.90;;;;;;936522;149;27400;-81
2022/10/03 06:06:56;;;;;;;7.00;4.83;;;10.90;99.90;;;;;;937748;149;27299;-80
2022/10/03 06:09:40;;;;;;;6.33;5.23;;;10.90;99.90;;;;;;936918;148;27329;-80
2022/10/03 06:12:15;;;;;;;7.40;5.57;;;11.00;99.90;;;;;;938008;148;27741;-80
2022/10/03 06:15:01;;;;;;;8.47;5.03;;;11.00;99.90;;;;;;937805;149;27334;-81
2022/10/03 06:17:54;;;;;;;5.83;5.23;;;11.10;99.90;;;;;;938079;148;27342;-80
2022/10/03 06:20:58;;;;;;;6.03;5.40;;;11.20;99.90;;;;;;937615;148;27697;-80
2022/10/03 06:23:45;;;;;;;7.83;5.50;;;11.30;99.90;;;;;;938379;149;27315;-82
2022/10/03 06:26:37;;;;;;;7.40;5.50;;;11.30;99.90;;;;;;936876;148;27797;-81
2022/10/03 06:29:40;;;;;;;8.50;5.43;;;11.40;99.90;;;;;;936541;148;27384;-80
2022/10/03 06:32:15;;;;;;;6.67;6.00;;;11.50;99.90;;;;;;937991;148;27399;-82
2022/10/03 06:35:01;;;;;;;7.63;6.03;;;11.60;99.90;;;;;;936947;150;27311;-80
2022/10/03 06:37:48;;;;;;;7.70;5.97;;;11.70;99.90;;;;;;937689;148;27424;-80
2022/10/03 06:40:27;;;;;;;6.73;5.90;;;11.80;99.90;;;;;;938007;148;27354;-80
2022/10/03 06:42:53;;;;;;;7.37;5.57;;;11.90;99.90;;;;;;936636;149;28104;-80
2022/10/03 06:45:44;;;;;;;7.93;6.47;;;12.00;99.90;;;;;;937694;148;27250;-80
2022/10/03 06:48:30;;;;;;;7.10;6.40;;;12.10;99.90;;;;;;938106;148;27361;-81
2022/10/03 06:50:59;;;;;;;6.63;5.93;;;12.20;99.90;;;;;;940147;148;27377;-81
2022/10/03 06:53:38;;;;;;;6.87;5.63;;;12.30;99.90;;;;;;941723;148;27422;-81
2022/10/03 06:56:22;;;;;;;7.90;6.27;;;12.40;99.90;;;;;;943778;148;27389;-81
2022/10/03 06:59:10;;;;;;;7.33;6.00;;;12.40;99.90;;;;;;944474;148;27361;-81
2022/10/03 07:01:58;;;;;;;7.70;6.93;;;12.60;99.90;;;;;;944161;148;27778;-81
2022/10/03 07:04:55;;;;;;;6.27;5.40;;;12.70;99.90;;;;;;943667;148;27369;-81
2022/10/03 07:07:42;;;;;;;7.70;6.03;;;12.80;99.90;;;;;;944733;148;27450;-81
2022/10/03 07:10:32;;;;;;;6.57;5.97;;;13.00;99.90;;;;;;943608;148;27364;-81
2022/10/03 07:12:59;;;;;;;5.93;5.43;;;13.10;99.90;;;;;;944266;148;27353;-82
2022/10/03 07:15:48;;;;;;;6.97;6.37;;;13.20;99.90;;;;;;943622;148;28821;-81
2022/10/03 07:18:26;;;;;;;8.17;6.63;;;13.40;99.90;;;;;;944160;148;27462;-82
2022/10/03 07:20:52;;;;;;;9.10;6.70;;;13.50;99.90;;;;;;943710;148;27900;-82
2022/10/03 07:23:42;;;;;;;8.37;6.60;;;13.60;99.90;;;;;;942802;148;27374;-81
2022/10/03 07:26:09;;;;;;;6.92;6.20;;;13.80;99.90;;;;;;944816;148;27442;-81
2022/10/03 07:29:03;;;;;;;7.42;6.45;;;14.00;99.90;;;;;;943089;148;27445;-82
2022/10/03 07:31:33;;;;;;;19.10;10.45;;;14.10;99.90;;;;;;944261;148;27441;-80
2022/10/03 07:34:18;;;;;;;13.75;8.05;;;14.30;99.90;;;;;;943755;148;27964;-81
2022/10/03 07:40:14;;;;;;;9.30;7.25;;;14.70;99.90;;;;;;944992;148;27345;-80
2022/10/03 07:43:02;;;;;;;9.53;7.05;;;15.00;99.90;;;;;;943479;148;27285;-81
2022/10/03 07:45:41;;;;;;;7.78;6.28;;;15.30;99.90;;;;;;942450;148;27441;-82
2022/10/03 07:48:35;;;;;;;7.25;6.60;;;15.60;99.90;;;;;;944601;148;27393;-81
2022/10/03 07:51:20;;;;;;;7.28;6.53;;;16.00;99.90;;;;;;918118;149;27342;-81
2022/10/03 07:54:04;;;;;;;8.38;6.75;;;16.50;99.90;;;;;;928651;149;27348;-81
2022/10/03 07:56:59;;;;;;;7.47;6.22;;;17.10;99.90;;;;;;944236;148;27356;-82
2022/10/03 07:59:44;;;;;;;6.08;5.58;;;17.60;99.90;;;;;;943721;148;27375;-81
2022/10/03 08:02:41;;;;;;;8.03;5.78;;;18.30;99.90;;;;;;944273;148;27372;-81
2022/10/03 08:05:12;;;;;;;8.08;5.97;;;18.90;99.90;;;;;;943820;148;27456;-82
2022/10/03 08:07:50;;;;;;;5.80;5.15;;;19.70;99.90;;;;;;944464;147;28697;-82
2022/10/03 08:10:25;;;;;;;6.10;4.67;;;20.50;99.90;;;;;;941579;148;27700;-82
2022/10/03 08:13:11;;;;;;;5.75;5.12;;;21.40;99.90;;;;;;938596;148;27283;-83
2022/10/03 08:15:46;;;;;;;5.28;4.78;;;22.30;99.90;;;;;;941559;148;27315;-82
2022/10/03 08:18:30;;;;;;;5.75;4.62;;;23.20;99.90;;;;;;942492;148;27294;-83
2022/10/03 08:21:14;;;;;;;6.60;4.75;;;24.10;99.90;;;;;;944121;148;27443;-82
2022/10/03 08:23:59;;;;;;;5.20;4.05;;;24.90;99.90;;;;;;940595;148;28403;-83
2022/10/03 08:26:41;;;;;;;6.33;4.40;;;25.70;99.90;;;;;;944111;148;27375;-83
2022/10/03 08:29:22;;;;;;;4.92;3.95;;;26.40;98.40;;;;;;943834;148;27392;-83
2022/10/03 08:32:07;;;;;;;6.15;4.60;;;27.00;95.90;;;;;;943795;148;27316;-83
2022/10/03 08:34:58;;;;;;;5.25;3.98;;;27.60;93.50;;;;;;944700;148;27294;-82
2022/10/03 08:37:49;;;;;;;5.25;3.55;;;28.10;92.20;;;;;;944552;148;27697;-82
2022/10/03 08:40:34;;;;;;;4.58;4.10;;;28.60;89.70;;;;;;944404;148;27424;-82
2022/10/03 08:43:38;;;;;;;5.40;3.87;;;29.00;86.40;;;;;;943245;148;27350;-83
2022/10/03 08:46:16;;;;;;;5.10;4.00;;;29.40;83.50;;;;;;943874;148;27399;-82
2022/10/03 08:48:48;;;;;;;5.17;4.60;;;29.80;81.70;;;;;;944321;148;27499;-83
2022/10/03 08:51:15;;;;;;;5.22;4.03;;;30.10;80.20;;;;;;944004;148;27278;-83
2022/10/03 08:53:50;;;;;;;4.05;3.62;;;30.40;77.10;;;;;;943121;148;27346;-83
2022/10/03 08:56:35;;;;;;;5.55;4.17;;;30.70;75.00;;;;;;944771;148;27804;-84
2022/10/03 08:59:11;;;;;;;4.17;3.65;;;30.90;73.50;;;;;;943646;148;27330;-84
2022/10/03 09:02:08;;;;;;;4.30;3.90;;;31.20;72.50;;;;;;943339;148;27322;-83
2022/10/03 09:04:58;;;;;;;5.35;3.50;;;31.30;70.90;;;;;;943734;148;27982;-83
2022/10/03 09:07:36;;;;;;;5.70;3.70;;;31.40;69.50;;;;;;943498;148;27309;-83
2022/10/03 09:10:08;;;;;;;5.78;4.05;;;31.40;67.50;;;;;;944047;148;27395;-83
2022/10/03 09:12:41;;;;;;;6.75;3.40;;;31.30;65.50;;;;;;943788;148;27349;-84
2022/10/03 09:15:08;;;;;;;3.37;3.08;;;31.20;65.30;;;;;;942848;148;27396;-84
2022/10/03 09:17:59;;;;;;;4.92;3.27;;;31.20;66.00;;;;;;943469;148;27271;-83
2022/10/03 09:20:25;;;;;;;3.83;3.25;;;31.20;65.60;;;;;;911846;154;27911;-84
2022/10/03 09:22:54;;;;;;;3.45;3.15;;;31.30;64.80;;;;;;921019;150;27326;-83
2022/10/03 09:25:39;;;;;;;3.55;2.98;;;31.20;62.90;;;;;;944803;148;27374;-84
2022/10/03 09:28:30;;;;;;;4.40;2.98;;;30.90;60.40;;;;;;942897;148;27335;-83
2022/10/03 09:31:05;;;;;;;4.35;3.25;;;30.60;59.60;;;;;;944826;148;27334;-83
2022/10/03 09:33:40;;;;;;;4.60;3.15;;;30.20;60.00;;;;;;943211;148;27309;-83
2022/10/03 09:36:19;;;;;;;3.75;2.62;;;29.80;61.20;;;;;;944057;148;27340;-83
2022/10/03 09:39:06;;;;;;;3.47;2.90;;;29.50;60.90;;;;;;943701;148;27389;-84
2022/10/03 09:41:57;;;;;;;3.87;2.33;;;29.20;61.40;;;;;;943798;148;27390;-84
2022/10/03 09:44:32;;;;;;;4.65;2.62;;;28.90;60.90;;;;;;944383;148;27310;-83
2022/10/03 09:50:02;;;;;;;4.47;2.60;;;28.30;60.60;;;;;;944183;148;27403;-83
2022/10/03 09:52:34;;;;;;;3.27;2.15;;;28.00;60.60;;;;;;943752;148;27355;-84
2022/10/03 09:55:01;;;;;;;3.62;2.42;;;27.70;60.40;;;;;;942865;148;27282;-83
2022/10/03 09:57:39;;;;;;;3.83;2.42;;;27.40;59.90;;;;;;944219;148;27338;-83
2022/10/03 10:00:09;;;;;;;6.00;2.85;;;27.10;59.90;;;;;;945282;148;27334;-83
2022/10/03 10:02:53;;;;;;;3.90;3.10;;;26.90;60.20;;;;;;941880;148;27286;-83
2022/10/03 10:05:38;;;;;;;4.08;2.60;;;26.60;59.80;;;;;;944360;148;27330;-83
2022/10/03 10:08:29;;;;;;;5.03;2.72;;;26.30;60.00;;;;;;944279;148;27311;-83
2022/10/03 10:10:56;;;;;;;3.67;2.50;;;26.00;60.60;;;;;;943508;148;27278;-83
2022/10/03 10:13:37;;;;;;;4.05;3.15;;;25.70;60.00;;;;;;942932;148;27287;-83
2022/10/03 10:16:22;;;;;;;3.33;2.62;;;25.40;60.10;;;;;;944317;148;27315;-83
2022/10/03 10:19:10;;;;;;;2.77;2.58;;;25.20;60.00;;;;;;930312;151;27412;-83
2022/10/03 10:22:01;;;;;;;3.10;2.40;;;24.90;61.40;;;;;;941465;148;28089;-83
2022/10/03 10:25:04;;;;;;;4.60;2.47;;;24.70;61.00;;;;;;942937;148;28323;-84
2022/10/03 10:27:31;;;;;;;3.85;2.45;;;24.50;61.00;;;;;;944113;148;27358;-83
2022/10/03 10:30:00;;;;;;;6.12;3.00;;;24.30;61.40;;;;;;941433;148;27364;-83
2022/10/03 10:32:27;;;;;;;3.33;2.85;;;24.10;61.50;;;;;;943775;148;27360;-84
2022/10/03 10:35:17;;;;;;;4.47;2.87;;;23.90;61.30;;;;;;942994;148;27279;-83
2022/10/03 10:38:06;;;;;;;3.05;2.50;;;23.80;61.70;;;;;;944074;148;27437;-83
2022/10/03 10:40:32;;;;;;;4.35;2.60;;;23.60;62.20;;;;;;942577;148;27454;-82
2022/10/03 10:43:20;;;;;;;3.52;2.60;;;23.40;62.50;;;;;;943931;148;27346;-83
2022/10/03 10:46:03;;;;;;;3.55;2.37;;;23.20;62.70;;;;;;943750;148;27399;-83
2022/10/03 10:48:31;;;;;;;2.85;2.10;;;23.10;62.70;;;;;;943783;148;27422;-83
2022/10/03 10:51:22;;;;;;;6.78;2.40;;;22.90;63.00;;;;;;943524;148;27294;-83
2022/10/03 10:53:52;;;;;;;4.28;2.08;;;22.80;63.20;;;;;;940969;148;27348;-83
2022/10/03 10:56:21;;;;;;;3.60;2.12;;;22.80;63.50;;;;;;936989;148;27446;-83
2022/10/03 10:59:07;;;;;;;3.92;2.80;;;22.80;63.70;;;;;;936542;148;28596;-83
2022/10/03 11:01:51;;;;;;;2.65;2.10;;;22.80;63.40;;;;;;938360;149;27751;-83
2022/10/03 11:04:56;;;;;;;4.75;2.40;;;22.80;64.10;;;;;;936535;148;27292;-83
2022/10/03 11:07:59;;;;;;;2.75;2.42;;;22.90;63.80;;;;;;937880;148;27432;-82
2022/10/03 11:10:29;;;;;;;3.25;2.10;;;22.90;63.50;;;;;;938077;148;27401;-82
2022/10/03 11:13:16;;;;;;;6.92;2.80;;;22.80;63.00;;;;;;937269;149;27656;-82
2022/10/03 11:15:58;;;;;;;4.45;2.55;;;22.70;62.70;;;;;;938140;148;27345;-83
2022/10/03 11:18:55;;;;;;;2.47;2.15;;;22.60;63.20;;;;;;936232;148;27288;-83
2022/10/03 11:21:48;;;;;;;2.00;1.80;;;22.50;63.20;;;;;;910997;153;27430;-84
2022/10/03 11:24:39;;;;;;;2.95;1.85;;;22.50;63.60;;;;;;933421;148;27346;-83
2022/10/03 11:27:17;;;;;;;2.42;1.82;;;22.50;63.70;;;;;;938180;148;27633;-82
2022/10/03 11:29:50;;;;;;;5.90;2.12;;;22.50;63.90;;;;;;938424;148;27355;-83
2022/10/03 11:32:25;;;;;;;1.85;1.52;;;22.60;63.60;;;;;;935583;148;27420;-83
2022/10/03 11:35:07;;;;;;;2.92;1.50;;;22.70;63.00;;;;;;936234;148;27292;-83
2022/10/03 11:37:45;;;;;;;2.22;1.57;;;22.70;62.40;;;;;;937115;149;27450;-82
2022/10/03 11:40:27;;;;;;;4.50;1.92;;;22.70;62.10;;;;;;937410;148;27351;-82
2022/10/03 11:43:02;;;;;;;2.47;1.62;;;22.70;61.90;;;;;;936982;148;27339;-83
2022/10/03 11:45:32;;;;;;;2.30;1.37;;;22.70;61.90;;;;;;936520;149;27398;-82
2022/10/03 11:48:14;;;;;;;2.30;1.77;;;22.70;61.80;;;;;;938057;148;27459;-82
2022/10/03 11:50:56;;;;;;;2.90;1.60;;;22.70;61.40;;;;;;938181;148;27676;-82
2022/10/03 11:53:40;;;;;;;2.00;1.37;;;22.70;61.30;;;;;;937187;147;27335;-82
2022/10/03 11:56:19;;;;;;;2.90;1.90;;;22.70;61.20;;;;;;937841;148;27354;-83
2022/10/03 11:58:54;;;;;;;2.87;1.55;;;22.70;61.30;;;;;;938293;148;27347;-82
2022/10/03 12:01:38;;;;;;;2.22;1.55;;;22.70;61.40;;;;;;936659;149;27319;-83
2022/10/03 12:04:11;;;;;;;3.47;1.52;;;22.70;61.40;;;;;;938020;148;27400;-83
2022/10/03 12:09:58;;;;;;;1.87;1.22;;;22.60;60.60;;;;;;937711;148;27350;-84
2022/10/03 12:12:34;;;;;;;2.50;1.35;;;22.60;60.70;;;;;;937766;148;27286;-82
2022/10/03 12:15:05;;;;;;;3.10;1.40;;;22.60;60.70;;;;;;937651;148;27327;-82
2022/10/03 12:17:34;;;;;;;3.65;1.40;;;22.60;60.70;;;;;;936615;148;27513;-82
2022/10/03 12:20:22;;;;;;;1.98;1.52;;;22.60;60.70;;;;;;937610;148;27325;-82
2022/10/03 12:23:01;;;;;;;2.60;1.47;;;22.60;60.50;;;;;;937296;148;27315;-82
2022/10/03 12:25:29;;;;;;;1.57;1.20;;;22.70;60.50;;;;;;937524;148;27335;-82
2022/10/03 12:28:06;;;;;;;1.62;1.32;;;22.70;60.50;;;;;;937341;148;27374;-81
2022/10/03 12:30:47;;;;;;;1.60;1.35;;;22.70;60.10;;;;;;938009;149;27498;-82
2022/10/03 12:33:34;;;;;;;2.83;1.60;;;22.70;59.90;;;;;;933562;148;27411;-83
2022/10/03 12:36:14;;;;;;;1.52;1.00;;;22.60;59.70;;;;;;937936;148;27307;-83
2022/10/03 12:38:51;;;;;;;2.50;1.45;;;22.60;59.50;;;;;;937897;148;27431;-82
2022/10/03 12:41:33;;;;;;;1.57;1.02;;;22.50;59.50;;;;;;937811;148;27748;-83
2022/10/03 12:44:27;;;;;;;1.15;1.05;;;22.40;59.40;;;;;;938392;148;27420;-82
2022/10/03 12:46:53;;;;;;;3.22;1.20;;;22.40;59.30;;;;;;937358;148;27375;-82
2022/10/03 12:49:20;;;;;;;3.12;1.15;;;22.40;59.20;;;;;;934569;148;27368;-82
2022/10/03 12:51:58;;;;;;;2.00;1.20;;;22.30;59.20;;;;;;917988;152;27410;-82
2022/10/03 12:54:42;;;;;;;2.83;1.00;;;22.30;59.10;;;;;;936595;148;27487;-83
2022/10/03 12:57:15;;;;;;;2.83;1.10;;;22.30;59.20;;;;;;938275;148;27294;-82
2022/10/03 12:59:53;;;;;;;2.25;1.27;;;22.30;59.30;;;;;;936375;149;27268;-81
2022/10/03 13:02:38;;;;;;;2.72;1.60;;;22.30;59.30;;;;;;908745;151;27333;-81
2022/10/03 13:05:17;;;;;;;5.20;1.95;;;22.40;59.60;;;;;;937892;148;27369;-82
2022/10/03 13:07:52;;;;;;;2.22;1.37;;;22.40;59.80;;;;;;937425;148;27387;-81
2022/10/03 13:10:41;;;;;;;1.87;1.27;;;22.40;59.60;;;;;;938280;148;27855;-81
2022/10/03 13:13:12;;;;;;;1.57;0.98;;;22.40;59.40;;;;;;937593;152;27335;-82
2022/10/03 13:15:48;;;;;;;1.67;1.25;;;22.40;59.30;;;;;;938495;148;27302;-81
2022/10/03 13:18:26;;;;;;;2.08;1.25;;;22.30;59.00;;;;;;938062;149;27354;-82
2022/10/03 13:21:17;;;;;;;1.50;1.40;;;22.20;58.70;;;;;;938045;148;27437;-81
2022/10/03 13:23:46;;;;;;;2.80;1.40;;;22.10;58.50;;;;;;938404;148;27282;-82
2022/10/03 13:26:19;;;;;;;9.20;2.33;;;22.00;58.60;;;;;;937214;148;27301;-81
2022/10/03 13:28:58;;;;;;;4.05;1.75;;;21.90;58.70;;;;;;937536;148;27366;-81
2022/10/03 13:31:26;;;;;;;1.30;1.20;;;21.80;58.80;;;;;;936320;148;27777;-82
2022/10/03 13:36:36;;;;;;;3.00;1.50;;;21.70;59.10;;;;;;974977;145;40653;-78
2022/10/03 13:39:15;;;;;;;2.80;1.15;;;21.50;58.90;;;;;;960011;146;27296;-78
2022/10/03 13:41:59;;;;;;;1.10;1.00;;;21.50;59.00;;;;;;960176;149;27302;-78
2022/10/03 13:44:34;;;;;;;2.17;1.30;;;21.50;59.30;;;;;;951328;147;27383;-78
2022/10/03 13:47:12;;;;;;;2.50;1.65;;;21.50;59.50;;;;;;944455;148;27402;-78
2022/10/03 13:49:54;;;;;;;3.60;1.70;;;21.50;59.70;;;;;;943543;149;27475;-78
2022/10/03 13:52:38;;;;;;;2.25;1.52;;;21.50;59.60;;;;;;943802;149;27350;-80
2022/10/03 13:55:20;;;;;;;1.32;1.27;;;21.60;59.60;;;;;;943551;149;27413;-80
2022/10/03 13:58:05;;;;;;;5.58;1.75;;;21.50;59.50;;;;;;943285;148;27481;-79
2022/10/03 14:00:35;;;;;;;3.02;1.55;;;21.50;59.30;;;;;;938723;149;27425;-79
2022/10/03 14:03:13;;;;;;;1.82;1.45;;;21.60;59.40;;;;;;942625;151;27256;-78
2022/10/03 14:05:51;;;;;;;2.35;1.45;;;21.50;59.40;;;;;;933406;148;27431;-78
2022/10/03 14:08:29;;;;;;;2.00;1.25;;;21.50;59.60;;;;;;943567;151;27458;-78
2022/10/03 14:11:02;;;;;;;2.67;1.82;;;21.50;59.80;;;;;;943873;149;27413;-78
2022/10/03 14:13:51;;;;;;;2.12;1.55;;;21.50;59.90;;;;;;942642;151;27376;-79